Terminal Aerodrome Forecast
Issued by NWS Cleveland, OH

Home | Current Version | Previous Version | Text Only | Print | Product List | Glossary On
Versions: 1 2 3 4 5 6 7 8 9 10 11 12 13 14 15 16 17 18 19 20 21 22
000
FTUS41 KCLE 020800 AAA
TAFYNG
TAF AMD
KYNG 020853Z 0209/0306 00000KT 3SM BR SCT004
      TEMPO 0209/0211 1/2SM FG BKN004
     FM021400 17006KT P6SM FEW100 SCT250
     FM022300 13005KT P6SM BKN150
     FM030100 15010KT P6SM BKN250=

USA.gov is the U.S. government's official web portal to all federal, state and local government web resources and services.